createdAt,value
2019-05-21T00:04:47.008Z,61.57
2019-05-21T00:09:49.500Z,54.47
2019-05-21T00:14:52.031Z,57.97
2019-05-21T00:19:54.631Z,61.93
2019-05-21T00:24:57.140Z,55.70
2019-05-21T00:30:36.670Z,59.17
2019-05-21T00:36:15.991Z,57.10
2019-05-21T00:41:55.329Z,53.77
2019-05-21T00:46:57.806Z,48.43
2019-05-21T00:52:07.827Z,49.90
2019-05-21T00:57:02.791Z,46.40
2019-05-21T01:02:05.285Z,48.20
2019-05-21T01:07:07.762Z,46.83
2019-05-21T01:12:10.259Z,46.33
2019-05-21T01:17:12.751Z,47.20
2019-05-21T01:22:15.257Z,48.73
2019-05-21T01:27:17.748Z,45.83
2019-05-21T01:32:20.245Z,41.77
2019-05-21T01:37:22.734Z,43.37
2019-05-21T01:42:25.255Z,45.50
2019-05-21T01:47:27.741Z,41.73
2019-05-21T01:52:30.222Z,41.70
2019-05-21T01:57:32.711Z,39.67
2019-05-21T02:02:35.207Z,38.97
2019-05-21T02:07:37.711Z,40.57
2019-05-21T02:12:40.204Z,41.57
2019-05-21T02:17:42.696Z,38.67
2019-05-21T02:22:45.179Z,38.20
2019-05-21T02:27:47.670Z,35.00
2019-05-21T02:32:50.158Z,38.73
2019-05-21T02:37:52.642Z,36.57
2019-05-21T02:42:55.131Z,35.43
2019-05-21T02:47:57.611Z,34.53
2019-05-21T02:53:00.095Z,32.23
2019-05-21T02:58:02.580Z,31.90
2019-05-21T03:03:05.063Z,29.03
2019-05-21T03:08:07.556Z,26.73
2019-05-21T03:13:10.111Z,26.13
2019-05-21T03:18:12.542Z,28.97
2019-05-21T03:23:15.261Z,27.23
2019-05-21T03:28:17.747Z,28.43
2019-05-21T03:33:20.426Z,23.83
2019-05-21T03:38:22.994Z,24.90
2019-05-21T03:43:25.589Z,23.47
2019-05-21T03:48:28.097Z,22.93
2019-05-21T03:53:30.656Z,21.73
2019-05-21T03:58:33.254Z,20.53
2019-05-21T04:03:35.761Z,18.80
2019-05-21T04:08:38.442Z,18.97
2019-05-21T04:13:41.035Z,18.37
2019-05-21T04:18:43.562Z,17.10
2019-05-21T04:23:46.060Z,17.60
2019-05-21T04:28:48.558Z,18.10
2019-05-21T04:33:51.079Z,18.93
2019-05-21T04:38:53.596Z,19.53
2019-05-21T04:43:56.103Z,21.70
2019-05-21T04:48:58.588Z,20.93
2019-05-21T04:54:01.082Z,19.13
2019-05-21T04:59:03.665Z,21.13
2019-05-21T05:04:06.073Z,20.50
2019-05-21T05:09:08.590Z,18.87
2019-05-21T05:14:11.075Z,21.30
2019-05-21T05:19:13.582Z,34.80
2019-05-21T05:24:16.074Z,19.80
2019-05-21T05:29:18.566Z,19.63
2019-05-21T05:34:21.061Z,21.60
2019-05-21T05:39:23.577Z,21.80
2019-05-21T05:44:26.073Z,20.43
2019-05-21T05:49:28.576Z,23.07
2019-05-21T05:54:31.182Z,21.93
2019-05-21T05:59:33.599Z,21.23
2019-05-21T06:04:36.093Z,25.27
2019-05-21T06:09:38.670Z,23.47
2019-05-21T06:14:41.163Z,24.23
2019-05-21T06:19:43.655Z,23.83
2019-05-21T06:24:46.136Z,22.80
2019-05-21T06:29:48.624Z,20.43
2019-05-21T06:34:51.265Z,19.23
2019-05-21T06:39:53.782Z,18.37
2019-05-21T06:44:56.281Z,19.40
2019-05-21T06:49:58.976Z,22.40
2019-05-21T06:55:01.476Z,16.17
2019-05-21T07:00:03.949Z,15.47
2019-05-21T07:05:06.449Z,16.43
2019-05-21T07:10:08.936Z,13.57
2019-05-21T07:15:11.442Z,15.40
2019-05-21T07:20:13.989Z,12.40
2019-05-21T07:25:16.500Z,12.20
2019-05-21T07:30:18.997Z,12.23
2019-05-21T07:35:21.492Z,12.30
2019-05-21T07:40:24.006Z,12.37
2019-05-21T07:45:26.493Z,13.40
2019-05-21T07:50:29.026Z,11.33
2019-05-21T07:55:31.537Z,10.97
2019-05-21T08:00:34.023Z,11.27
2019-05-21T08:05:36.499Z,11.83
2019-05-21T08:10:38.990Z,9.70
2019-05-21T08:15:41.693Z,10.17
2019-05-21T08:20:44.176Z,13.57
2019-05-21T08:25:46.667Z,10.20
2019-05-21T08:30:49.154Z,10.93
2019-05-21T08:35:51.673Z,9.73
2019-05-21T08:40:54.157Z,9.50
2019-05-21T08:45:56.666Z,7.77
2019-05-21T08:50:59.114Z,6.70
2019-05-21T08:56:01.616Z,8.33
2019-05-21T09:01:04.189Z,6.77
2019-05-21T09:06:06.595Z,6.63
2019-05-21T09:11:09.119Z,7.63
2019-05-21T09:16:11.614Z,30.67
2019-05-21T09:21:14.105Z,6.50
2019-05-21T09:26:16.571Z,5.60
2019-05-21T09:31:19.077Z,5.43
2019-05-21T09:36:25.042Z,4.43
2019-05-21T09:41:24.061Z,4.10
2019-05-21T09:46:27.279Z,4.27
2019-05-21T09:51:29.765Z,19.90
2019-05-21T09:56:32.237Z,4.07
2019-05-21T10:01:47.660Z,4.07
2019-05-21T10:06:46.255Z,3.97
2019-05-21T10:11:48.754Z,3.50
2019-05-21T10:16:51.234Z,4.33
2019-05-21T10:21:56.769Z,6.07
2019-05-21T10:26:56.265Z,4.00
2019-05-21T10:31:58.731Z,4.10
2019-05-21T10:37:01.212Z,3.63
2019-05-21T10:42:03.733Z,3.60
2019-05-21T10:47:06.196Z,4.13
2019-05-21T10:52:08.708Z,3.33
2019-05-21T10:57:11.215Z,4.30
2019-05-21T11:02:16.608Z,3.37
2019-05-21T11:07:19.123Z,3.30
2019-05-21T11:12:21.624Z,3.30
2019-05-21T11:17:24.120Z,3.27
2019-05-21T11:22:26.623Z,2.63
2019-05-21T11:27:29.123Z,3.47
2019-05-21T11:32:31.727Z,3.10
2019-05-21T11:37:34.217Z,3.30
2019-05-21T11:42:36.713Z,3.00
2019-05-21T11:47:39.272Z,3.10
2019-05-21T11:52:42.032Z,2.60
2019-05-21T11:57:44.512Z,2.57
2019-05-21T12:02:47.019Z,2.40
2019-05-21T12:07:49.509Z,2.30
2019-05-21T12:12:51.998Z,2.40
2019-05-21T12:17:54.570Z,2.70
2019-05-21T12:22:56.985Z,2.30
2019-05-21T12:27:59.529Z,2.57
2019-05-21T12:33:02.052Z,2.70
2019-05-21T12:38:04.607Z,2.80
2019-05-21T12:43:07.054Z,2.60
2019-05-21T12:48:09.557Z,4.80
2019-05-21T12:53:12.130Z,3.20
2019-05-21T12:58:14.642Z,5.60
2019-05-21T13:03:17.142Z,3.40
2019-05-21T13:08:22.757Z,3.70
2019-05-21T13:13:25.326Z,4.70
2019-05-21T13:18:28.539Z,4.83
2019-05-21T13:23:31.029Z,3.60
2019-05-21T13:28:33.518Z,8.60
2019-05-21T13:33:36.024Z,8.87
2019-05-21T13:38:38.518Z,4.50
2019-05-21T13:43:41.005Z,5.00
2019-05-21T13:48:46.791Z,5.20
2019-05-21T13:53:45.999Z,4.00
2019-05-21T13:58:48.493Z,3.57
2019-05-21T14:03:50.995Z,3.57
2019-05-21T14:08:53.496Z,4.20
2019-05-21T14:13:55.974Z,4.30
2019-05-21T14:18:58.476Z,4.30
2019-05-21T14:24:00.946Z,5.83
2019-05-21T14:29:03.501Z,7.03
2019-05-21T14:34:05.989Z,7.40
2019-05-21T14:39:08.468Z,6.87
2019-05-21T14:44:10.948Z,5.70
2019-05-21T14:49:13.463Z,4.73
2019-05-21T14:54:26.360Z,5.00
2019-05-21T14:59:18.442Z,4.83
2019-05-21T15:04:21.280Z,18.63
2019-05-21T15:09:23.401Z,4.73
2019-05-21T15:14:25.906Z,4.63
2019-05-21T15:19:28.389Z,4.67
2019-05-21T15:24:33.502Z,16.00
2019-05-21T15:29:33.360Z,4.33
2019-05-21T15:34:35.855Z,4.37
2019-05-21T15:39:38.347Z,4.50
2019-05-21T15:44:40.881Z,4.30
2019-05-21T15:49:43.371Z,4.17
2019-05-21T15:54:45.851Z,4.60
2019-05-21T15:59:48.333Z,5.00
2019-05-21T16:04:50.861Z,4.57
2019-05-21T16:09:53.381Z,14.10
2019-05-21T16:14:55.825Z,6.50
2019-05-21T16:19:58.304Z,5.67
2019-05-21T16:25:00.826Z,5.67
2019-05-21T16:30:03.301Z,5.40
2019-05-21T16:35:05.884Z,4.90
2019-05-21T16:40:08.360Z,4.90
2019-05-21T16:45:10.835Z,5.43
2019-05-21T16:50:13.523Z,3.87
2019-05-21T16:55:16.018Z,3.67
2019-05-21T17:00:18.508Z,3.87
2019-05-21T17:05:20.983Z,3.80
2019-05-21T17:10:23.468Z,4.10
2019-05-21T17:15:25.955Z,4.37
2019-05-21T17:20:28.448Z,4.70
2019-05-21T17:25:30.952Z,4.60
2019-05-21T17:30:33.416Z,6.30
2019-05-21T17:35:36.003Z,5.53
2019-05-21T17:40:38.483Z,6.07
2019-05-21T17:45:40.961Z,5.97
2019-05-21T17:50:43.455Z,5.00
2019-05-21T17:55:45.956Z,5.17
2019-05-21T18:00:48.464Z,5.30
2019-05-21T18:05:50.942Z,5.43
2019-05-21T18:10:53.438Z,6.67
2019-05-21T18:15:55.946Z,7.07
2019-05-21T18:20:58.446Z,6.23
2019-05-21T18:26:01.617Z,9.37
2019-05-21T18:31:08.718Z,10.13
2019-05-21T18:36:11.137Z,7.27
2019-05-21T18:41:13.657Z,10.13
2019-05-21T18:46:16.288Z,7.60
2019-05-21T18:51:18.782Z,6.93
2019-05-21T18:56:21.280Z,9.13
2019-05-21T19:01:23.790Z,8.27
2019-05-21T19:06:26.290Z,8.73
2019-05-21T19:11:28.791Z,7.90
2019-05-21T19:16:31.282Z,9.57
2019-05-21T19:21:33.807Z,11.00
2019-05-21T19:26:36.301Z,9.43
2019-05-21T19:31:38.806Z,8.90
2019-05-21T19:36:41.302Z,9.43
2019-05-21T19:41:43.849Z,9.90
2019-05-21T19:46:46.342Z,10.90
2019-05-21T19:51:48.821Z,11.67
2019-05-21T19:56:51.303Z,12.47
2019-05-21T20:01:53.821Z,16.70
2019-05-21T20:06:56.324Z,15.70
2019-05-21T20:11:58.825Z,16.40
2019-05-21T20:17:01.366Z,26.73
2019-05-21T20:22:03.842Z,20.17
2019-05-21T20:27:06.350Z,21.27
2019-05-21T20:32:08.941Z,19.40
2019-05-21T20:37:11.450Z,20.37
2019-05-21T20:42:13.947Z,22.80
2019-05-21T20:47:16.444Z,21.17
2019-05-21T20:52:19.094Z,25.47
2019-05-21T20:57:21.435Z,21.27
2019-05-21T21:02:23.947Z,20.27
2019-05-21T21:07:26.459Z,29.23
2019-05-21T21:12:28.974Z,27.60
2019-05-21T21:17:31.467Z,27.10
2019-05-21T21:22:33.966Z,26.20
2019-05-21T21:27:36.448Z,26.73
2019-05-21T21:32:38.931Z,25.17
2019-05-21T21:37:41.433Z,25.73
2019-05-21T21:42:48.102Z,25.73
2019-05-21T21:47:50.604Z,23.27
2019-05-21T21:52:53.103Z,24.60
2019-05-21T21:57:55.649Z,26.10
2019-05-21T22:02:58.138Z,25.87
2019-05-21T22:08:00.629Z,25.07
2019-05-21T22:13:03.127Z,25.73
2019-05-21T22:18:05.614Z,27.13
2019-05-21T22:23:08.100Z,26.20
2019-05-21T22:28:10.583Z,25.80
2019-05-21T22:33:13.274Z,34.53
2019-05-21T22:38:15.761Z,27.87
2019-05-21T22:43:18.259Z,25.57
2019-05-21T22:48:20.760Z,24.90
2019-05-21T22:53:23.260Z,23.57
2019-05-21T22:58:25.749Z,25.10
2019-05-21T23:03:28.234Z,26.10
2019-05-21T23:08:30.716Z,24.30
2019-05-21T23:13:33.197Z,25.70
2019-05-21T23:18:35.688Z,22.93
2019-05-21T23:23:38.251Z,21.57
2019-05-21T23:28:40.768Z,25.27
2019-05-21T23:33:43.250Z,27.20
2019-05-21T23:38:45.737Z,28.93
2019-05-21T23:43:48.231Z,31.57
2019-05-21T23:48:50.718Z,26.83
2019-05-21T23:53:53.228Z,25.57
2019-05-21T23:58:55.815Z,27.57
